createdAt,value
2017-05-02T00:00:25.808Z,0
2017-05-02T00:01:06.312Z,0
2017-05-02T00:01:46.835Z,0
2017-05-02T00:02:27.359Z,0
2017-05-02T00:03:07.879Z,0
2017-05-02T00:03:48.413Z,0
2017-05-02T00:04:28.960Z,0
2017-05-02T00:05:09.434Z,0
2017-05-02T00:05:49.963Z,0
2017-05-02T00:06:30.500Z,0
2017-05-02T00:07:10.980Z,0
2017-05-02T00:07:51.495Z,0
2017-05-02T00:08:32.011Z,0
2017-05-02T00:09:12.529Z,0
2017-05-02T00:09:53.035Z,0
2017-05-02T00:10:33.532Z,0
2017-05-02T00:11:14.046Z,0
2017-05-02T00:11:54.567Z,0
2017-05-02T00:12:35.063Z,0
2017-05-02T00:13:15.568Z,0
2017-05-02T00:13:56.089Z,0
2017-05-02T00:14:36.647Z,0
2017-05-02T00:15:17.153Z,0
2017-05-02T00:15:57.617Z,0
2017-05-02T00:16:38.160Z,0
2017-05-02T00:17:18.650Z,0
2017-05-02T00:17:59.161Z,0
2017-05-02T00:18:39.668Z,0
2017-05-02T00:19:20.190Z,0
2017-05-02T00:20:00.703Z,0
2017-05-02T00:20:41.232Z,0
2017-05-02T00:21:21.745Z,0
2017-05-02T00:22:02.239Z,0
2017-05-02T00:22:42.763Z,0
2017-05-02T00:23:23.265Z,0
2017-05-02T00:24:03.771Z,0
2017-05-02T00:24:44.338Z,0
2017-05-02T00:25:24.803Z,0
2017-05-02T00:26:05.302Z,0
2017-05-02T00:26:45.791Z,0
2017-05-02T00:27:26.304Z,0
2017-05-02T00:28:06.857Z,0
2017-05-02T00:28:47.327Z,0
2017-05-02T00:29:27.796Z,0
2017-05-02T00:30:08.317Z,0
2017-05-02T00:30:48.789Z,0
2017-05-02T00:31:29.270Z,0
2017-05-02T00:32:09.759Z,0
2017-05-02T00:32:50.301Z,0
2017-05-02T00:33:30.771Z,0
2017-05-02T00:34:11.237Z,0
2017-05-02T00:34:51.765Z,0
2017-05-02T00:35:32.310Z,0
2017-05-02T00:36:12.844Z,0
2017-05-02T00:36:53.264Z,0
2017-05-02T00:37:33.779Z,0
2017-05-02T00:38:14.270Z,0
2017-05-02T00:38:54.776Z,0
2017-05-02T00:39:35.317Z,0
2017-05-02T00:40:15.798Z,0
2017-05-02T00:40:56.316Z,0
2017-05-02T00:41:36.795Z,0
2017-05-02T00:42:17.301Z,0
2017-05-02T00:42:57.859Z,0
2017-05-02T00:43:38.338Z,0
2017-05-02T00:44:18.836Z,0
2017-05-02T00:44:59.331Z,0
2017-05-02T00:45:39.845Z,0
2017-05-02T00:46:20.350Z,0
2017-05-02T00:47:00.868Z,0
2017-05-02T00:47:41.389Z,0
2017-05-02T00:48:21.906Z,0
2017-05-02T00:49:02.420Z,0
2017-05-02T00:49:42.916Z,0
2017-05-02T00:50:23.414Z,0
2017-05-02T00:51:03.938Z,0
2017-05-02T00:51:44.436Z,0
2017-05-02T00:52:24.961Z,0
2017-05-02T00:53:05.477Z,0
2017-05-02T00:53:45.979Z,0
2017-05-02T00:54:26.446Z,0
2017-05-02T00:55:06.976Z,0
2017-05-02T00:55:47.463Z,0
2017-05-02T00:56:28.030Z,0
2017-05-02T00:57:08.481Z,0
2017-05-02T00:57:48.959Z,0
2017-05-02T00:58:29.485Z,0
2017-05-02T00:59:09.994Z,0
2017-05-02T00:59:50.500Z,0
2017-05-02T01:00:30.998Z,0
2017-05-02T01:01:11.465Z,0
2017-05-02T01:01:52.001Z,0
2017-05-02T01:02:32.479Z,0
2017-05-02T01:03:12.959Z,0
2017-05-02T01:03:53.425Z,0
2017-05-02T01:04:33.906Z,0
2017-05-02T01:05:14.389Z,0
2017-05-02T01:05:54.890Z,0
2017-05-02T01:06:35.371Z,0
2017-05-02T01:07:15.891Z,0
2017-05-02T01:07:56.343Z,0
2017-05-02T01:08:36.864Z,0
2017-05-02T01:09:17.360Z,0
2017-05-02T01:09:57.824Z,0
2017-05-02T01:10:38.321Z,0
2017-05-02T01:11:18.844Z,0
2017-05-02T01:11:59.314Z,0
2017-05-02T01:12:39.817Z,0
2017-05-02T01:13:20.286Z,0
2017-05-02T01:14:00.771Z,0
2017-05-02T01:14:41.290Z,0
2017-05-02T01:15:21.813Z,0
2017-05-02T01:16:02.294Z,0
2017-05-02T01:16:42.822Z,0
2017-05-02T01:17:23.328Z,0
2017-05-02T01:18:03.822Z,0
2017-05-02T01:18:44.327Z,0
2017-05-02T01:19:24.847Z,0
2017-05-02T01:20:05.325Z,0
2017-05-02T01:20:45.827Z,0
2017-05-02T01:21:26.344Z,0
2017-05-02T01:22:06.867Z,0
2017-05-02T01:22:47.379Z,0
2017-05-02T01:23:27.843Z,0
2017-05-02T01:24:08.354Z,0
2017-05-02T01:24:48.844Z,0
2017-05-02T01:25:29.331Z,0
2017-05-02T01:26:09.804Z,0
2017-05-02T01:26:50.330Z,0
2017-05-02T01:27:30.800Z,0
2017-05-02T01:28:11.295Z,0
2017-05-02T01:28:51.798Z,0
2017-05-02T01:29:32.288Z,0
2017-05-02T01:30:12.780Z,0
2017-05-02T01:30:53.287Z,0
2017-05-02T01:31:33.806Z,0
2017-05-02T01:32:14.274Z,0
2017-05-02T01:32:54.749Z,0
2017-05-02T01:33:35.201Z,0
2017-05-02T01:34:15.710Z,0
2017-05-02T01:34:56.204Z,0
2017-05-02T01:35:36.698Z,0
2017-05-02T01:36:17.185Z,0
2017-05-02T01:36:57.707Z,0
2017-05-02T01:37:38.205Z,0
2017-05-02T01:38:18.722Z,0
2017-05-02T01:38:59.243Z,0
2017-05-02T01:39:39.744Z,0
2017-05-02T01:40:20.280Z,0
2017-05-02T01:41:00.796Z,0
2017-05-02T01:41:41.314Z,0
2017-05-02T01:42:21.831Z,0
2017-05-02T01:43:02.358Z,0
2017-05-02T01:43:42.853Z,0
2017-05-02T01:44:23.373Z,0
2017-05-02T01:45:03.893Z,0
2017-05-02T01:45:44.383Z,0
2017-05-02T01:46:24.894Z,0
2017-05-02T01:47:05.414Z,0
2017-05-02T01:47:45.940Z,0
2017-05-02T01:48:26.402Z,0
2017-05-02T01:49:06.919Z,0
2017-05-02T01:49:47.388Z,0
2017-05-02T01:50:27.891Z,0
2017-05-02T01:51:08.443Z,0
2017-05-02T01:51:48.914Z,0
2017-05-02T01:52:29.459Z,0
2017-05-02T01:53:09.950Z,0
2017-05-02T01:53:50.467Z,0
2017-05-02T01:54:30.994Z,0
2017-05-02T01:55:11.498Z,0
2017-05-02T01:55:52.022Z,0
2017-05-02T01:56:32.552Z,0
2017-05-02T01:57:13.040Z,0
2017-05-02T01:57:53.553Z,0
2017-05-02T01:58:34.054Z,0
2017-05-02T01:59:14.570Z,0
2017-05-02T01:59:55.102Z,0
2017-05-02T02:00:35.589Z,0
2017-05-02T02:01:16.123Z,0
2017-05-02T02:01:56.637Z,0
2017-05-02T02:02:37.147Z,0
2017-05-02T02:03:17.668Z,0
2017-05-02T02:03:58.156Z,0
2017-05-02T02:04:38.659Z,0
2017-05-02T02:05:19.160Z,0
2017-05-02T02:05:59.661Z,0
2017-05-02T02:06:40.205Z,0
2017-05-02T02:07:20.700Z,0
2017-05-02T02:08:01.191Z,0
2017-05-02T02:08:41.699Z,0
2017-05-02T02:09:22.218Z,0
2017-05-02T02:10:02.735Z,0
2017-05-02T02:10:43.239Z,0
2017-05-02T02:11:23.740Z,0
2017-05-02T02:12:04.249Z,0
2017-05-02T02:12:44.763Z,0
2017-05-02T02:13:25.254Z,0
2017-05-02T02:14:05.794Z,0
2017-05-02T02:14:46.287Z,0
2017-05-02T02:15:26.788Z,0
2017-05-02T02:16:07.310Z,0
2017-05-02T02:16:47.829Z,0
2017-05-02T02:17:28.342Z,0
2017-05-02T02:18:08.841Z,0
2017-05-02T02:18:49.308Z,0
2017-05-02T02:19:29.830Z,0
2017-05-02T02:20:10.337Z,0
2017-05-02T02:20:50.840Z,0
2017-05-02T02:21:31.341Z,0
2017-05-02T02:22:11.846Z,0
2017-05-02T02:22:52.352Z,0
2017-05-02T02:23:32.864Z,0
2017-05-02T02:24:13.386Z,0
2017-05-02T02:24:53.908Z,0
2017-05-02T02:25:34.422Z,0
2017-05-02T02:26:14.963Z,0
2017-05-02T02:26:55.447Z,0
2017-05-02T02:27:35.973Z,0
2017-05-02T02:28:16.508Z,0
2017-05-02T02:28:57.000Z,0
2017-05-02T02:29:37.493Z,0
2017-05-02T02:30:18.003Z,0
2017-05-02T02:30:58.489Z,0
2017-05-02T02:31:39.008Z,0
2017-05-02T02:32:19.510Z,0
2017-05-02T02:33:00.005Z,0
2017-05-02T02:33:40.482Z,0
2017-05-02T02:34:21.080Z,0
2017-05-02T02:35:01.532Z,0
2017-05-02T02:35:42.037Z,0
2017-05-02T02:36:22.499Z,0
2017-05-02T02:37:03.020Z,0
2017-05-02T02:37:43.513Z,0
2017-05-02T02:38:24.093Z,0
2017-05-02T02:39:04.549Z,0
2017-05-02T02:39:45.021Z,0
2017-05-02T02:40:25.523Z,0
2017-05-02T02:41:06.291Z,0
2017-05-02T02:41:46.568Z,0
2017-05-02T02:42:27.071Z,0
2017-05-02T02:43:07.679Z,0
2017-05-02T02:43:48.187Z,0
2017-05-02T02:44:28.836Z,0
2017-05-02T02:45:09.357Z,0
2017-05-02T02:45:49.877Z,0
2017-05-02T02:46:30.403Z,0
2017-05-02T02:47:10.904Z,0
2017-05-02T02:47:51.421Z,0
2017-05-02T02:48:31.966Z,0
2017-05-02T02:49:12.441Z,0
2017-05-02T02:49:52.947Z,0
2017-05-02T02:50:33.450Z,0
2017-05-02T02:51:14.012Z,0
2017-05-02T02:51:54.527Z,0
2017-05-02T02:52:35.030Z,0
2017-05-02T02:53:15.594Z,0
2017-05-02T02:53:56.187Z,0
2017-05-02T02:54:36.687Z,0
2017-05-02T02:55:17.213Z,0
2017-05-02T02:55:57.750Z,0
2017-05-02T02:56:38.258Z,0
2017-05-02T02:57:18.771Z,0
2017-05-02T02:57:59.279Z,0
2017-05-02T02:58:39.783Z,0
2017-05-02T02:59:20.307Z,0
2017-05-02T03:00:00.833Z,0
2017-05-02T03:00:41.365Z,0
2017-05-02T03:01:21.862Z,0
2017-05-02T03:02:02.391Z,0
2017-05-02T03:02:42.950Z,0
2017-05-02T03:03:23.477Z,0
2017-05-02T03:04:03.980Z,0
2017-05-02T03:04:44.497Z,0
2017-05-02T03:05:25.017Z,0
2017-05-02T03:06:05.549Z,0
2017-05-02T03:06:46.064Z,0
2017-05-02T03:07:26.576Z,0
2017-05-02T03:08:07.058Z,0
2017-05-02T03:08:47.548Z,0
2017-05-02T03:09:28.032Z,0
2017-05-02T03:10:08.518Z,0
2017-05-02T03:10:49.018Z,0
2017-05-02T03:11:29.529Z,0
2017-05-02T03:12:10.053Z,0
2017-05-02T03:12:50.571Z,0
2017-05-02T03:13:31.086Z,0
2017-05-02T03:14:11.588Z,0
2017-05-02T03:14:52.104Z,0
2017-05-02T03:15:32.630Z,0
2017-05-02T03:16:13.154Z,0
2017-05-02T03:16:53.670Z,0
2017-05-02T03:17:34.195Z,0
2017-05-02T03:18:15.695Z,0
2017-05-02T03:18:55.236Z,0
2017-05-02T03:19:35.736Z,0
2017-05-02T03:20:16.271Z,0
2017-05-02T03:20:56.784Z,0
2017-05-02T03:21:37.299Z,0
2017-05-02T03:22:17.808Z,0
2017-05-02T03:22:58.358Z,0
2017-05-02T03:23:38.836Z,0
2017-05-02T03:24:19.335Z,0
2017-05-02T03:24:59.827Z,0
2017-05-02T03:25:40.525Z,0
2017-05-02T03:26:20.920Z,0
2017-05-02T03:27:01.407Z,0
2017-05-02T03:27:41.934Z,0
2017-05-02T03:28:22.424Z,0
2017-05-02T03:29:02.919Z,0
2017-05-02T03:29:43.415Z,0
2017-05-02T03:30:23.911Z,0
2017-05-02T03:31:04.399Z,0
2017-05-02T03:31:44.906Z,0
2017-05-02T03:32:25.410Z,0
2017-05-02T03:33:05.934Z,0
2017-05-02T03:33:46.437Z,0
2017-05-02T03:34:26.910Z,0
2017-05-02T03:35:07.432Z,0
2017-05-02T03:35:48.057Z,0
2017-05-02T03:36:28.513Z,0
2017-05-02T03:37:09.005Z,0
2017-05-02T03:37:49.524Z,0
2017-05-02T03:38:30.111Z,0
2017-05-02T03:39:10.651Z,0
2017-05-02T03:39:51.169Z,0
2017-05-02T03:40:31.656Z,0
2017-05-02T03:41:12.180Z,0
2017-05-02T03:41:52.706Z,0
2017-05-02T03:42:33.199Z,0
2017-05-02T03:43:13.871Z,0
2017-05-02T03:43:54.206Z,0
2017-05-02T03:44:34.709Z,0
2017-05-02T03:45:15.211Z,0
2017-05-02T03:45:55.719Z,0
2017-05-02T03:46:36.210Z,0
2017-05-02T03:47:16.691Z,0
2017-05-02T03:47:57.201Z,0
2017-05-02T03:48:37.716Z,0
2017-05-02T03:49:18.220Z,0
2017-05-02T03:49:59.076Z,0
2017-05-02T03:50:39.628Z,0
2017-05-02T03:51:20.157Z,0
2017-05-02T03:52:00.649Z,4
2017-05-02T03:52:41.106Z,4
2017-05-02T03:53:21.621Z,4
2017-05-02T03:54:02.149Z,4
2017-05-02T03:54:43.290Z,4
2017-05-02T03:55:23.690Z,0
2017-05-02T03:56:04.212Z,0
2017-05-02T03:56:45.002Z,0
2017-05-02T03:57:25.269Z,4
2017-05-02T03:58:05.784Z,4
2017-05-02T03:58:46.318Z,4
2017-05-02T03:59:26.817Z,4
2017-05-02T04:00:07.372Z,4
2017-05-02T04:00:47.836Z,8
2017-05-02T04:01:28.363Z,4
2017-05-02T04:02:08.861Z,4
2017-05-02T04:02:49.323Z,4
2017-05-02T04:03:29.813Z,4
2017-05-02T04:04:10.358Z,4
2017-05-02T04:04:50.842Z,4
2017-05-02T04:05:31.330Z,8
2017-05-02T04:06:11.807Z,8
2017-05-02T04:06:52.316Z,8
2017-05-02T04:07:32.820Z,8
2017-05-02T04:08:13.271Z,8
2017-05-02T04:08:53.785Z,8
2017-05-02T04:09:34.276Z,8
2017-05-02T04:10:14.770Z,8
2017-05-02T04:10:55.247Z,8
2017-05-02T04:11:35.762Z,12
2017-05-02T04:12:16.266Z,8
2017-05-02T04:12:56.766Z,12
2017-05-02T04:13:37.220Z,12
2017-05-02T04:14:17.728Z,8
2017-05-02T04:14:58.262Z,12
2017-05-02T04:15:38.720Z,12
2017-05-02T04:16:19.204Z,12
2017-05-02T04:16:59.695Z,12
2017-05-02T04:17:40.182Z,12
2017-05-02T04:18:20.686Z,12
2017-05-02T04:19:01.191Z,12
2017-05-02T04:19:41.707Z,16
2017-05-02T04:20:22.213Z,16
2017-05-02T04:21:02.732Z,12
2017-05-02T04:21:43.245Z,16
2017-05-02T04:22:23.765Z,16
2017-05-02T04:23:04.262Z,16
2017-05-02T04:23:44.767Z,16
2017-05-02T04:24:25.288Z,16
2017-05-02T04:25:05.816Z,20
2017-05-02T04:25:46.337Z,16
2017-05-02T04:26:26.887Z,16
2017-05-02T04:27:07.533Z,20
2017-05-02T04:27:48.046Z,20
2017-05-02T04:28:28.554Z,20
2017-05-02T04:29:09.049Z,20
2017-05-02T04:29:49.581Z,24
2017-05-02T04:30:30.064Z,24
2017-05-02T04:31:10.582Z,24
2017-05-02T04:31:51.106Z,24
2017-05-02T04:32:31.603Z,28
2017-05-02T04:33:12.118Z,28
2017-05-02T04:33:52.636Z,28
2017-05-02T04:34:33.156Z,32
2017-05-02T04:35:13.667Z,32
2017-05-02T04:35:54.187Z,32
2017-05-02T04:36:34.692Z,32
2017-05-02T04:37:15.206Z,36
2017-05-02T04:37:55.714Z,32
2017-05-02T04:38:36.237Z,36
2017-05-02T04:39:16.716Z,36
2017-05-02T04:39:57.243Z,36
2017-05-02T04:40:37.759Z,36
2017-05-02T04:41:18.255Z,40
2017-05-02T04:41:58.776Z,36
2017-05-02T04:42:39.293Z,40
2017-05-02T04:43:19.819Z,40
2017-05-02T04:44:00.326Z,40
2017-05-02T04:44:40.851Z,40
2017-05-02T04:45:21.358Z,44
2017-05-02T04:46:01.856Z,44
2017-05-02T04:46:42.382Z,48
2017-05-02T04:47:22.878Z,48
2017-05-02T04:48:03.414Z,48
2017-05-02T04:48:43.907Z,52
2017-05-02T04:49:24.442Z,56
2017-05-02T04:50:04.969Z,56
2017-05-02T04:50:45.463Z,56
2017-05-02T04:51:26.062Z,60
2017-05-02T04:52:06.518Z,60
2017-05-02T04:52:47.020Z,64
2017-05-02T04:53:27.535Z,64
2017-05-02T04:54:08.074Z,68
2017-05-02T04:54:48.551Z,68
2017-05-02T04:55:29.088Z,72
2017-05-02T04:56:09.602Z,76
2017-05-02T04:56:50.116Z,80
2017-05-02T04:57:30.636Z,84
2017-05-02T04:58:11.216Z,88
2017-05-02T04:58:51.650Z,88
2017-05-02T04:59:32.165Z,88
2017-05-02T05:00:12.675Z,92
2017-05-02T05:00:53.184Z,96
2017-05-02T05:01:33.707Z,96
2017-05-02T05:02:14.220Z,100
2017-05-02T05:02:54.702Z,100
2017-05-02T05:03:35.190Z,104
2017-05-02T05:04:15.708Z,108
2017-05-02T05:04:56.214Z,108
2017-05-02T05:05:36.697Z,108
2017-05-02T05:06:17.197Z,108
2017-05-02T05:06:57.763Z,108
2017-05-02T05:07:38.282Z,108
2017-05-02T05:08:18.805Z,112
2017-05-02T05:08:59.281Z,108
2017-05-02T05:09:39.773Z,112
2017-05-02T05:10:20.201Z,112
2017-05-02T05:11:00.751Z,112
2017-05-02T05:11:41.181Z,116
2017-05-02T05:12:21.682Z,112
2017-05-02T05:13:02.191Z,116
2017-05-02T05:13:42.710Z,116
2017-05-02T05:14:23.217Z,116
2017-05-02T05:15:03.705Z,116
2017-05-02T05:15:44.167Z,116
2017-05-02T05:16:24.649Z,116
2017-05-02T05:17:05.158Z,120
2017-05-02T05:17:45.609Z,116
2017-05-02T05:18:26.101Z,116
2017-05-02T05:19:06.630Z,116
2017-05-02T05:19:47.069Z,116
2017-05-02T05:20:27.757Z,112
2017-05-02T05:21:08.250Z,112
2017-05-02T05:21:48.815Z,112
2017-05-02T05:22:29.263Z,116
2017-05-02T05:23:09.802Z,116
2017-05-02T05:23:50.271Z,124
2017-05-02T05:24:30.937Z,128
2017-05-02T05:25:11.294Z,128
2017-05-02T05:25:51.801Z,132
2017-05-02T05:26:32.340Z,132
2017-05-02T05:28:30.517Z,152
2017-05-02T05:29:11.040Z,160
2017-05-02T05:29:51.538Z,164
2017-05-02T05:30:32.020Z,172
2017-05-02T05:31:12.534Z,176
2017-05-02T05:31:53.031Z,184
2017-05-02T05:32:33.515Z,192
2017-05-02T05:33:14.004Z,196
2017-05-02T05:33:54.476Z,200
2017-05-02T05:34:35.219Z,208
2017-05-02T05:35:15.679Z,216
2017-05-02T05:35:56.412Z,224
2017-05-02T05:36:36.923Z,228
2017-05-02T05:37:17.408Z,240
2017-05-02T05:37:57.922Z,248
2017-05-02T05:38:38.395Z,256
2017-05-02T05:39:18.891Z,264
2017-05-02T05:39:59.332Z,268
2017-05-02T05:40:39.846Z,272
2017-05-02T05:41:20.761Z,276
2017-05-02T05:42:01.267Z,284
2017-05-02T05:42:41.805Z,288
2017-05-02T05:43:22.269Z,296
2017-05-02T05:44:02.838Z,304
2017-05-02T05:44:43.327Z,304
2017-05-02T05:45:24.049Z,312
2017-05-02T05:46:04.601Z,312
2017-05-02T05:46:45.187Z,320
2017-05-02T05:47:26.662Z,324
2017-05-02T05:48:07.634Z,324
2017-05-02T05:48:47.856Z,328
2017-05-02T05:49:28.407Z,332
2017-05-02T05:50:09.035Z,336
2017-05-02T05:50:50.171Z,336
2017-05-02T05:51:30.722Z,336
2017-05-02T05:52:11.097Z,340
2017-05-02T05:52:51.586Z,340
2017-05-02T05:53:32.086Z,340
2017-05-02T05:54:12.607Z,340
2017-05-02T05:54:53.085Z,340
2017-05-02T05:55:33.590Z,340
2017-05-02T05:56:14.047Z,340
2017-05-02T05:56:54.577Z,336
2017-05-02T05:57:35.038Z,336
2017-05-02T05:58:15.556Z,332
2017-05-02T05:58:56.084Z,332
2017-05-02T05:59:36.513Z,332
2017-05-02T06:00:17.090Z,332
2017-05-02T06:00:57.590Z,332
2017-05-02T06:01:38.060Z,328
2017-05-02T06:02:18.534Z,332
2017-05-02T06:02:59.040Z,328
2017-05-02T06:03:39.573Z,328
2017-05-02T06:04:20.274Z,332
2017-05-02T06:05:00.832Z,328
2017-05-02T06:05:41.420Z,328
2017-05-02T06:06:21.938Z,328
2017-05-02T06:07:02.463Z,332
2017-05-02T06:07:42.962Z,332
2017-05-02T06:08:23.478Z,336
2017-05-02T06:09:04.002Z,344
2017-05-02T06:09:44.482Z,352
2017-05-02T06:10:24.998Z,356
2017-05-02T06:11:05.524Z,360
2017-05-02T06:11:46.033Z,364
2017-05-02T06:12:26.538Z,372
2017-05-02T06:13:07.044Z,380
2017-05-02T06:13:47.557Z,380
2017-05-02T06:14:28.517Z,392
2017-05-02T06:15:09.024Z,396
2017-05-02T06:15:49.544Z,404
2017-05-02T06:16:30.047Z,416
2017-05-02T06:17:10.559Z,428
2017-05-02T06:17:51.087Z,436
2017-05-02T06:18:31.596Z,448
2017-05-02T06:19:12.110Z,456
2017-05-02T06:19:52.647Z,460
2017-05-02T06:20:33.188Z,468
2017-05-02T06:21:13.689Z,480
2017-05-02T06:21:54.204Z,492
2017-05-02T06:22:34.730Z,516
2017-05-02T06:23:15.247Z,520
2017-05-02T06:23:55.741Z,532
2017-05-02T06:24:36.271Z,540
2017-05-02T06:25:16.771Z,564
2017-05-02T06:25:57.277Z,560
2017-05-02T06:26:37.788Z,572
2017-05-02T06:27:18.323Z,580
2017-05-02T06:27:58.823Z,604
2017-05-02T06:28:39.345Z,604
2017-05-02T06:29:19.843Z,616
2017-05-02T06:30:00.379Z,624
2017-05-02T06:30:40.883Z,616
2017-05-02T06:31:21.386Z,632
2017-05-02T06:32:01.875Z,636
2017-05-02T06:32:42.380Z,644
2017-05-02T06:33:22.872Z,640
2017-05-02T06:34:03.392Z,644
2017-05-02T06:34:43.997Z,648
2017-05-02T06:35:24.584Z,656
2017-05-02T06:36:05.134Z,688
2017-05-02T06:36:46.121Z,672
2017-05-02T06:37:26.925Z,684
2017-05-02T06:38:07.177Z,688
2017-05-02T06:38:47.663Z,688
2017-05-02T06:39:28.156Z,692
2017-05-02T06:40:08.958Z,700
2017-05-02T06:40:49.462Z,692
2017-05-02T06:41:29.996Z,700
2017-05-02T06:42:10.465Z,704
2017-05-02T06:42:50.965Z,692
2017-05-02T06:43:31.457Z,688
2017-05-02T06:44:11.990Z,696
2017-05-02T06:44:52.500Z,692
2017-05-02T06:45:33.935Z,692
2017-05-02T06:46:14.447Z,692
2017-05-02T06:46:54.968Z,688
2017-05-02T06:47:35.499Z,692
2017-05-02T06:48:16.008Z,700
2017-05-02T06:48:56.497Z,704
2017-05-02T06:49:37.016Z,692
2017-05-02T06:50:17.531Z,692
2017-05-02T06:50:58.026Z,688
2017-05-02T06:51:38.537Z,696
2017-05-02T06:52:19.060Z,728
2017-05-02T06:52:59.571Z,700
2017-05-02T06:53:40.076Z,696
2017-05-02T06:54:20.595Z,696
2017-05-02T06:55:01.122Z,688
2017-05-02T06:55:41.657Z,700
2017-05-02T06:56:22.186Z,692
2017-05-02T06:57:02.725Z,692
2017-05-02T06:57:43.213Z,688
2017-05-02T06:58:23.721Z,708
2017-05-02T06:59:04.230Z,696
2017-05-02T06:59:44.734Z,688
2017-05-02T07:00:25.263Z,696
2017-05-02T07:01:05.792Z,684
2017-05-02T07:01:46.340Z,692
2017-05-02T07:02:26.815Z,696
2017-05-02T07:03:07.317Z,704
2017-05-02T07:03:47.847Z,708
2017-05-02T07:04:28.352Z,720
2017-05-02T07:05:08.851Z,732
2017-05-02T07:05:49.383Z,740
2017-05-02T07:06:29.841Z,740
2017-05-02T07:07:10.325Z,760
2017-05-02T07:07:50.838Z,768
2017-05-02T07:08:31.358Z,780
2017-05-02T07:09:11.866Z,796
2017-05-02T07:09:52.389Z,804
2017-05-02T07:10:32.875Z,828
2017-05-02T07:11:13.400Z,848
2017-05-02T07:11:53.894Z,852
2017-05-02T07:12:34.396Z,864
2017-05-02T07:13:14.902Z,876
2017-05-02T07:13:55.403Z,896
2017-05-02T07:14:35.915Z,912
2017-05-02T07:15:16.433Z,928
2017-05-02T07:15:56.949Z,944
2017-05-02T07:16:37.462Z,952
2017-05-02T07:17:17.964Z,972
2017-05-02T07:17:58.500Z,984
2017-05-02T07:20:11.746Z,1020
2017-05-02T07:20:52.268Z,1040
2017-05-02T07:21:32.784Z,1060
2017-05-02T07:22:13.288Z,1056
2017-05-02T07:22:53.811Z,1076
2017-05-02T07:23:34.332Z,1080
2017-05-02T07:24:14.861Z,1092
2017-05-02T07:24:55.377Z,1104
2017-05-02T07:25:35.905Z,1124
2017-05-02T07:26:16.410Z,1116
2017-05-02T07:26:56.924Z,1152
2017-05-02T07:27:37.452Z,1148
2017-05-02T07:28:17.968Z,1192
2017-05-02T07:28:58.494Z,1192
2017-05-02T07:29:38.990Z,1204
2017-05-02T07:30:19.504Z,1208
2017-05-02T07:31:00.040Z,1212
2017-05-02T07:31:40.558Z,1212
2017-05-02T07:32:21.063Z,1228
2017-05-02T07:33:01.569Z,1216
2017-05-02T07:33:42.069Z,1256
2017-05-02T07:34:22.666Z,1240
2017-05-02T07:35:03.161Z,1232
2017-05-02T07:35:43.680Z,1276
2017-05-02T07:36:24.184Z,1276
2017-05-02T07:37:04.685Z,1276
2017-05-02T07:37:45.176Z,1276
2017-05-02T07:38:25.716Z,1300
2017-05-02T07:39:06.251Z,1296
2017-05-02T07:39:46.728Z,1308
2017-05-02T07:40:27.277Z,1304
2017-05-02T07:41:07.784Z,1352
2017-05-02T07:41:48.298Z,1372
2017-05-02T07:44:22.671Z,1396
2017-05-02T07:45:03.199Z,1392
2017-05-02T07:45:43.717Z,1404
2017-05-02T07:46:24.239Z,1412
2017-05-02T07:47:04.733Z,1400
2017-05-02T07:47:45.252Z,1420
2017-05-02T07:48:25.755Z,1424
2017-05-02T07:49:06.300Z,1436
2017-05-02T07:49:46.789Z,1456
2017-05-02T07:50:27.311Z,1416
2017-05-02T07:51:07.810Z,1400
2017-05-02T07:51:48.287Z,1424
2017-05-02T07:52:28.790Z,1408
2017-05-02T07:53:09.332Z,1424
2017-05-02T07:53:49.835Z,1416
2017-05-02T07:54:30.345Z,1396
2017-05-02T07:55:10.846Z,1392
2017-05-02T07:55:51.354Z,1404
2017-05-02T07:56:31.886Z,1404
2017-05-02T07:57:12.349Z,1372
2017-05-02T07:57:52.875Z,1408
2017-05-02T07:58:33.403Z,1408
2017-05-02T07:59:13.901Z,1376
2017-05-02T07:59:54.497Z,1384
2017-05-02T08:00:36.222Z,1380
2017-05-02T08:01:16.729Z,1364
2017-05-02T08:01:57.252Z,1344
2017-05-02T08:02:38.042Z,1364
2017-05-02T08:05:11.670Z,1368
2017-05-02T08:05:52.183Z,1364
2017-05-02T08:06:32.721Z,1384
2017-05-02T08:07:13.223Z,1392
2017-05-02T08:07:53.744Z,1428
2017-05-02T08:08:34.268Z,1420
2017-05-02T08:09:14.799Z,1428
2017-05-02T08:09:55.389Z,1456
2017-05-02T08:10:35.944Z,1452
2017-05-02T08:11:16.453Z,1452
2017-05-02T08:11:56.956Z,1440
2017-05-02T08:12:37.587Z,1444
2017-05-02T08:13:18.158Z,1448
2017-05-02T08:13:58.617Z,1440
2017-05-02T08:14:39.347Z,1472
2017-05-02T08:15:19.861Z,1464
2017-05-02T08:16:00.345Z,1476
2017-05-02T08:16:40.849Z,1452
2017-05-02T08:17:21.381Z,1508
2017-05-02T08:18:01.930Z,1480
2017-05-02T08:18:42.426Z,1484
2017-05-02T08:19:23.212Z,1500
2017-05-02T08:20:03.709Z,1496
2017-05-02T08:20:44.211Z,1488
2017-05-02T08:21:24.713Z,1508
2017-05-02T08:22:05.238Z,1484
2017-05-02T08:22:45.767Z,1512
2017-05-02T08:23:26.271Z,1516
2017-05-02T08:24:06.759Z,1500
2017-05-02T08:24:47.279Z,1520
2017-05-02T08:25:27.779Z,1512
2017-05-02T08:26:08.289Z,1484
2017-05-02T08:26:48.804Z,1484
2017-05-02T08:27:29.290Z,1492
2017-05-02T08:28:09.839Z,1496
2017-05-02T08:28:50.340Z,1492
2017-05-02T08:29:30.899Z,1504
2017-05-02T08:30:11.391Z,1500
2017-05-02T08:32:39.935Z,1512
2017-05-02T08:33:20.453Z,1536
2017-05-02T08:34:00.960Z,1528
2017-05-02T08:34:41.519Z,1544
2017-05-02T08:35:21.976Z,1544
2017-05-02T08:36:02.485Z,1548
2017-05-02T08:36:42.997Z,1552
2017-05-02T08:37:23.513Z,1596
2017-05-02T08:38:04.023Z,1584
2017-05-02T08:38:44.536Z,1548
2017-05-02T08:39:25.067Z,1600
2017-05-02T08:40:05.529Z,1600
2017-05-02T08:40:46.058Z,1632
2017-05-02T08:41:26.633Z,1596
2017-05-02T08:42:07.132Z,1596
2017-05-02T08:42:47.643Z,1624
2017-05-02T08:43:28.182Z,1604
2017-05-02T08:44:08.691Z,1600
2017-05-02T08:44:49.250Z,1616
2017-05-02T08:45:29.763Z,1628
2017-05-02T08:46:10.278Z,1648
2017-05-02T08:46:50.780Z,1624
2017-05-02T08:47:31.287Z,1628
2017-05-02T08:48:11.805Z,1628
2017-05-02T08:48:52.316Z,1608
2017-05-02T08:49:32.832Z,1628
2017-05-02T08:50:13.347Z,1616
2017-05-02T08:50:53.860Z,1624
2017-05-02T08:51:34.387Z,1624
2017-05-02T08:52:14.880Z,1648
2017-05-02T08:52:55.388Z,1616
2017-05-02T08:53:35.910Z,1624
2017-05-02T08:54:16.404Z,1640
2017-05-02T08:54:56.927Z,1624
2017-05-02T08:55:37.483Z,1628
2017-05-02T08:56:17.948Z,1648
2017-05-02T08:56:58.486Z,1660
2017-05-02T08:57:38.950Z,1660
2017-05-02T08:58:19.478Z,1712
2017-05-02T08:59:00.008Z,1676
2017-05-02T08:59:40.552Z,1672
2017-05-02T09:00:21.037Z,1716
2017-05-02T09:01:01.581Z,1704
2017-05-02T09:01:42.035Z,1708
2017-05-02T09:02:22.545Z,1716
2017-05-02T09:03:03.095Z,1728
2017-05-02T09:03:43.607Z,1744
2017-05-02T09:04:24.115Z,1748
2017-05-02T09:05:04.617Z,1768
2017-05-02T09:05:45.145Z,1792
2017-05-02T09:06:25.676Z,1784
2017-05-02T09:07:06.184Z,1796
2017-05-02T09:07:46.703Z,1836
2017-05-02T09:08:27.206Z,1864
2017-05-02T09:09:07.704Z,1832
2017-05-02T09:09:48.230Z,1864
2017-05-02T09:10:28.742Z,1864
2017-05-02T09:11:09.264Z,1880
2017-05-02T09:11:49.783Z,1920
2017-05-02T09:12:30.298Z,1904
2017-05-02T09:13:10.821Z,1912
2017-05-02T09:13:51.346Z,1964
2017-05-02T09:14:31.861Z,1948
2017-05-02T09:15:12.365Z,1972
2017-05-02T09:15:52.886Z,1964
2017-05-02T09:16:33.409Z,1972
2017-05-02T09:17:13.936Z,2012
2017-05-02T09:17:54.459Z,1996
2017-05-02T09:18:34.988Z,2012
2017-05-02T09:19:15.519Z,2012
2017-05-02T09:19:56.042Z,2020
2017-05-02T09:20:36.553Z,2028
2017-05-02T09:21:17.065Z,2004
2017-05-02T09:21:57.577Z,2008
2017-05-02T09:22:38.099Z,2024
2017-05-02T09:23:18.621Z,2040
2017-05-02T09:23:59.128Z,2040
2017-05-02T09:24:39.651Z,2024
2017-05-02T09:25:20.160Z,2048
2017-05-02T09:26:00.695Z,2024
2017-05-02T09:26:41.236Z,2044
2017-05-02T09:27:21.752Z,2044
2017-05-02T09:29:50.311Z,2036
2017-05-02T09:30:30.833Z,2056
2017-05-02T09:31:11.347Z,2080
2017-05-02T09:31:51.860Z,2036
2017-05-02T09:34:25.547Z,2056
2017-05-02T09:35:06.027Z,2056
2017-05-02T09:35:46.569Z,2024
2017-05-02T09:36:27.071Z,2044
2017-05-02T09:37:07.592Z,2024
2017-05-02T09:37:48.145Z,2044
2017-05-02T09:38:28.670Z,2016
2017-05-02T09:39:09.178Z,2036
2017-05-02T09:39:49.693Z,2032
2017-05-02T09:40:30.224Z,2032
2017-05-02T09:41:10.760Z,2060
2017-05-02T09:41:51.310Z,2044
2017-05-02T09:42:31.904Z,2028
2017-05-02T09:43:12.421Z,2052
2017-05-02T09:43:52.967Z,2040
2017-05-02T09:44:33.486Z,2040